Buckley Mcallister — WDH4370 — position and weather

sailwx.info

Track history (hours):
 
Tides and Currents Weather Stations Pressure Air Temp Water Temp Dewpoint Dewpoint Depression Visibility Wind Speed Wind Dir Waves Ship Positions

Buckley Mcallister

Owner: McAllister Towing & Transportation Co. Inc., Staten Island, NY. More information available from US FCC via Universal Licensing System and Coast Guard Vessel Documentation Center.

Last reported at 2017-Nov-15 04:35 UTC. Time now 2017-Nov-18 03:06 UTC.
Position N 41°30' W 071°21'.

Length 30 m; draft 5 m.

Type: Tug. MMSI: 367617020.

Date/timePositionNaut miles runAvg speedWind from/ knotsBaromVisibWave heightAir tempDewpointWater temp
2017-Nov-15 04:35N 41°30' W 071°21'1 6.2
2017-Nov-15 04:30N 41°30' W 071°21'4 6.8
2017-Nov-15 03:50N 41°35' W 071°22'2 6.0
2017-Nov-15 03:30N 41°36' W 071°24'1 0.7
2017-Nov-15 02:25N 41°37' W 071°24'1 0.1
2017-Nov-14 16:37N 41°37' W 071°24'1 5.1
2017-Nov-14 16:30N 41°36' W 071°24'1 1.8
2017-Nov-14 16:00N 41°35' W 071°24'0 0.0
2017-Nov-12 22:22N 41°35' W 071°24'2 3.7
2017-Nov-12 21:55N 41°37' W 071°24'0 0.0
2017-Nov-12 12:30N 41°37' W 071°24'0 0.3
2017-Nov-12 12:00N 41°37' W 071°24'1 1.3
2017-Nov-12 11:30N 41°36' W 071°24'0 0.2
2017-Nov-12 10:59N 41°36' W 071°24'1 0.2
2017-Nov-12 06:01N 41°37' W 071°24'0 0.2
2017-Nov-12 05:59N 41°37' W 071°24'0 0.0
2017-Nov-12 05:23N 41°37' W 071°24'0 0.0
2017-Nov-11 20:45N 41°37' W 071°24'0 0.7
2017-Nov-11 20:30N 41°37' W 071°24'0 0.9
2017-Nov-11 20:00N 41°37' W 071°24'1 2.7
2017-Nov-11 19:30N 41°35' W 071°24'2 0.2
2017-Nov-11 11:55N 41°37' W 071°24'0 0.2
2017-Nov-11 11:28N 41°37' W 071°24'2 2.6
2017-Nov-11 10:50N 41°35' W 071°24'2 4.5
2017-Nov-11 10:30N 41°37' W 071°24'0 0.0
2017-Nov-10 22:12N 41°37' W 071°24'  
Track history (hours):
 
Tides and Currents Weather Stations Pressure Air Temp Water Temp Dewpoint Dewpoint Depression Visibility Wind Speed Wind Dir Waves Ship Positions

Buckley Mcallister

Owner: McAllister Towing & Transportation Co. Inc., Staten Island, NY. More information available from US FCC via Universal Licensing System and Coast Guard Vessel Documentation Center.

Last reported at 2017-Nov-15 04:35 UTC. Time now 2017-Nov-18 03:06 UTC.
Position N 41°30' W 071°21'.

Length 30 m; draft 5 m.

Type: Tug. MMSI: 367617020.

Date/timePositionNaut miles runAvg speedWind from/ knotsBaromVisibWave heightAir tempDewpointWater temp
2017-Nov-15 04:35N 41°30' W 071°21'1 6.2
2017-Nov-15 04:30N 41°30' W 071°21'4 6.8
2017-Nov-15 03:50N 41°35' W 071°22'2 6.0
2017-Nov-15 03:30N 41°36' W 071°24'1 0.7
2017-Nov-15 02:25N 41°37' W 071°24'1 0.1
2017-Nov-14 16:37N 41°37' W 071°24'1 5.1
2017-Nov-14 16:30N 41°36' W 071°24'1 1.8
2017-Nov-14 16:00N 41°35' W 071°24'0 0.0
2017-Nov-12 22:22N 41°35' W 071°24'2 3.7
2017-Nov-12 21:55N 41°37' W 071°24'0 0.0
2017-Nov-12 12:30N 41°37' W 071°24'0 0.3
2017-Nov-12 12:00N 41°37' W 071°24'1 1.3
2017-Nov-12 11:30N 41°36' W 071°24'0 0.2
2017-Nov-12 10:59N 41°36' W 071°24'1 0.2
2017-Nov-12 06:01N 41°37' W 071°24'0 0.2
2017-Nov-12 05:59N 41°37' W 071°24'0 0.0
2017-Nov-12 05:23N 41°37' W 071°24'0 0.0
2017-Nov-11 20:45N 41°37' W 071°24'0 0.7
2017-Nov-11 20:30N 41°37' W 071°24'0 0.9
2017-Nov-11 20:00N 41°37' W 071°24'1 2.7
2017-Nov-11 19:30N 41°35' W 071°24'2 0.2
2017-Nov-11 11:55N 41°37' W 071°24'0 0.2
2017-Nov-11 11:28N 41°37' W 071°24'2 2.6
2017-Nov-11 10:50N 41°35' W 071°24'2 4.5
2017-Nov-11 10:30N 41°37' W 071°24'0 0.0
2017-Nov-10 22:12N 41°37' W 071°24'  

Dump ship's entire track history